createdAt,value
2019-05-23T00:00:50.854Z,1016.69
2019-05-23T00:01:50.718Z,1016.69
2019-05-23T00:02:50.772Z,1016.67
2019-05-23T00:03:50.621Z,1016.63
2019-05-23T00:04:50.569Z,1016.63
2019-05-23T00:05:50.588Z,1016.65
2019-05-23T00:06:50.529Z,1016.65
2019-05-23T00:07:50.600Z,1016.68
2019-05-23T00:08:50.480Z,1016.67
2019-05-23T00:09:50.452Z,1016.69
2019-05-23T00:15:45.358Z,1016.64
2019-05-23T00:16:45.258Z,1016.64
2019-05-23T00:18:49.327Z,1016.63
2019-05-23T00:19:49.354Z,1016.63
2019-05-23T00:21:53.322Z,1016.67
2019-05-23T00:22:53.349Z,1016.63
2019-05-23T00:24:58.220Z,1016.57
2019-05-23T00:25:58.117Z,1016.63
2019-05-23T00:28:03.061Z,1016.64
2019-05-23T00:29:09.873Z,1016.63
2019-05-23T00:31:07.069Z,1016.61
2019-05-23T00:32:06.958Z,1016.60
2019-05-23T00:34:10.959Z,1016.55
2019-05-23T00:35:10.870Z,1016.58
2019-05-23T00:37:14.912Z,1016.55
2019-05-23T00:38:14.883Z,1016.57
2019-05-23T00:40:18.897Z,1016.58
2019-05-23T00:41:18.787Z,1016.56
2019-05-23T00:43:22.866Z,1016.54
2019-05-23T00:44:22.709Z,1016.56
2019-05-23T00:46:26.707Z,1016.51
2019-05-23T00:47:26.620Z,1016.53
2019-05-23T00:49:30.609Z,1016.52
2019-05-23T00:50:30.534Z,1016.51
2019-05-23T00:52:34.531Z,1016.52
2019-05-23T00:53:34.438Z,1016.47
2019-05-23T00:55:27.384Z,1016.47
2019-05-23T00:56:27.288Z,1016.44
2019-05-23T00:58:31.339Z,1016.47
2019-05-23T00:59:31.299Z,1016.44
2019-05-23T01:01:35.296Z,1016.43
2019-05-23T01:02:35.209Z,1016.44
2019-05-23T01:04:39.209Z,1016.41
2019-05-23T01:05:39.120Z,1016.41
2019-05-23T01:06:39.179Z,1016.44
2019-05-23T01:07:39.059Z,1016.40
2019-05-23T01:08:39.089Z,1016.44
2019-05-23T01:09:39.025Z,1016.42
2019-05-23T01:10:39.028Z,1016.46
2019-05-23T01:11:38.970Z,1016.40
2019-05-23T01:12:39.018Z,1016.45
2019-05-23T01:13:38.910Z,1016.41
2019-05-23T01:14:38.929Z,1016.38
2019-05-23T01:15:38.849Z,1016.40
2019-05-23T01:16:38.939Z,1016.38
2019-05-23T01:17:38.809Z,1016.40
2019-05-23T01:18:38.848Z,1016.36
2019-05-23T01:19:38.748Z,1016.33
2019-05-23T01:20:38.730Z,1016.35
2019-05-23T01:21:38.698Z,1016.33
2019-05-23T01:22:38.769Z,1016.31
2019-05-23T01:23:38.653Z,1016.32
2019-05-23T01:24:38.679Z,1016.30
2019-05-23T01:25:38.579Z,1016.34
2019-05-23T01:26:38.588Z,1016.30
2019-05-23T01:27:38.550Z,1016.32
2019-05-23T01:28:38.603Z,1016.31
2019-05-23T01:29:38.689Z,1016.29
2019-05-23T01:30:38.514Z,1016.31
2019-05-23T01:31:38.439Z,1016.31
2019-05-23T01:32:38.530Z,1016.35
2019-05-23T01:33:38.388Z,1016.31
2019-05-23T01:34:38.443Z,1016.35
2019-05-23T01:35:38.341Z,1016.34
2019-05-23T01:36:38.308Z,1016.33
2019-05-23T01:37:38.276Z,1016.33
2019-05-23T01:38:38.360Z,1016.27
2019-05-23T01:39:38.238Z,1016.30
2019-05-23T01:40:38.269Z,1016.27
2019-05-23T01:41:38.180Z,1016.29
2019-05-23T01:42:38.187Z,1016.30
2019-05-23T01:43:38.123Z,1016.29
2019-05-23T01:44:38.190Z,1016.25
2019-05-23T01:45:38.077Z,1016.27
2019-05-23T01:46:38.099Z,1016.30
2019-05-23T01:47:38.032Z,1016.29
2019-05-23T01:48:38.076Z,1016.26
2019-05-23T01:49:38.000Z,1016.24
2019-05-23T01:50:38.041Z,1016.22
2019-05-23T01:51:37.924Z,1016.20
2019-05-23T01:52:37.898Z,1016.20
2019-05-23T01:53:37.862Z,1016.18
2019-05-23T01:54:37.949Z,1016.20
2019-05-23T01:55:37.808Z,1016.18
2019-05-23T01:56:37.856Z,1016.16
2019-05-23T01:57:37.757Z,1016.18
2019-05-23T01:58:37.737Z,1016.16
2019-05-23T01:59:37.777Z,1016.16
2019-05-23T02:00:37.678Z,1016.17
2019-05-23T02:01:37.687Z,1016.12
2019-05-23T02:02:37.617Z,1016.11
2019-05-23T02:03:37.597Z,1016.12
2019-05-23T02:04:37.580Z,1016.15
2019-05-23T02:05:37.618Z,1016.11
2019-05-23T02:06:37.527Z,1016.05
2019-05-23T02:07:37.542Z,1016.07
2019-05-23T02:08:37.469Z,1016.12
2019-05-23T02:09:37.532Z,1016.07
2019-05-23T02:10:37.418Z,1016.05
2019-05-23T02:11:37.451Z,1016.04
2019-05-23T02:12:37.362Z,1016.04
2019-05-23T02:13:37.399Z,1016.06
2019-05-23T02:14:37.312Z,1016.07
2019-05-23T02:15:37.361Z,1016.10
2019-05-23T02:16:37.259Z,1016.11
2019-05-23T02:17:37.273Z,1016.08
2019-05-23T02:18:37.198Z,1016.07
2019-05-23T02:19:37.191Z,1016.08
2019-05-23T02:20:37.189Z,1016.03
2019-05-23T02:21:37.196Z,1016.04
2019-05-23T02:22:37.096Z,1016.03
2019-05-23T02:23:37.120Z,1016.01
2019-05-23T02:24:37.050Z,1016.00
2019-05-23T02:25:37.029Z,1016.03
2019-05-23T02:26:37.021Z,1016.00
2019-05-23T02:27:36.962Z,1016.00
2019-05-23T02:28:37.041Z,1016.02
2019-05-23T02:29:36.918Z,1016.03
2019-05-23T02:30:36.899Z,1016.01
2019-05-23T02:31:36.869Z,1016.02
2019-05-23T02:32:36.858Z,1016.00
2019-05-23T02:33:36.808Z,1016.00
2019-05-23T02:34:36.867Z,1016.02
2019-05-23T02:35:36.746Z,1016.01
2019-05-23T02:36:36.778Z,1015.98
2019-05-23T02:37:36.709Z,1015.97
2019-05-23T02:38:36.789Z,1015.96
2019-05-23T02:39:36.648Z,1015.98
2019-05-23T02:40:36.698Z,1015.92
2019-05-23T02:41:36.618Z,1015.93
2019-05-23T02:42:36.567Z,1016.00
2019-05-23T02:43:36.619Z,1015.93
2019-05-23T02:44:36.510Z,1015.96
2019-05-23T02:45:36.527Z,1015.91
2019-05-23T02:46:36.482Z,1015.95
2019-05-23T02:47:36.538Z,1015.92
2019-05-23T02:48:36.413Z,1015.93
2019-05-23T02:49:36.448Z,1015.94
2019-05-23T02:50:36.374Z,1015.91
2019-05-23T02:51:36.358Z,1015.92
2019-05-23T02:52:36.378Z,1015.93
2019-05-23T02:53:36.288Z,1015.89
2019-05-23T02:54:37.425Z,1015.94
2019-05-23T02:55:36.218Z,1015.91
2019-05-23T02:56:36.288Z,1015.91
2019-05-23T02:57:36.196Z,1015.92
2019-05-23T02:58:36.138Z,1015.89
2019-05-23T02:59:36.207Z,1015.89
2019-05-23T03:00:52.681Z,1015.88
2019-05-23T03:01:36.063Z,1015.87
2019-05-23T03:02:36.132Z,1015.90
2019-05-23T03:03:36.019Z,1015.84
2019-05-23T03:04:36.036Z,1015.85
2019-05-23T03:05:35.957Z,1015.87
2019-05-23T03:06:36.046Z,1015.83
2019-05-23T03:07:35.902Z,1015.82
2019-05-23T03:08:35.891Z,1015.83
2019-05-23T03:09:35.848Z,1015.81
2019-05-23T03:10:35.872Z,1015.83
2019-05-23T03:11:35.808Z,1015.80
2019-05-23T03:12:35.879Z,1015.81
2019-05-23T03:13:35.740Z,1015.82
2019-05-23T03:14:35.789Z,1015.79
2019-05-23T03:15:35.687Z,1015.81
2019-05-23T03:16:35.699Z,1015.81
2019-05-23T03:17:35.638Z,1015.79
2019-05-23T03:18:35.710Z,1015.83
2019-05-23T03:19:35.619Z,1015.78
2019-05-23T03:20:35.560Z,1015.79
2019-05-23T03:21:35.630Z,1015.78
2019-05-23T03:22:35.501Z,1015.78
2019-05-23T03:23:35.542Z,1015.76
2019-05-23T03:24:35.559Z,1015.76
2019-05-23T03:25:35.433Z,1015.74
2019-05-23T03:26:35.460Z,1015.75
2019-05-23T03:27:35.406Z,1015.72
2019-05-23T03:28:35.369Z,1015.72
2019-05-23T03:29:35.318Z,1015.73
2019-05-23T03:30:35.300Z,1015.74
2019-05-23T03:31:35.287Z,1015.71
2019-05-23T03:32:38.781Z,1015.73
2019-05-23T03:33:35.289Z,1015.70
2019-05-23T03:34:35.184Z,1015.74
2019-05-23T03:35:35.171Z,1015.75
2019-05-23T03:36:35.129Z,1015.73
2019-05-23T03:37:35.220Z,1015.70
2019-05-23T03:38:35.088Z,1015.68
2019-05-23T03:39:35.128Z,1015.70
2019-05-23T03:40:35.030Z,1015.71
2019-05-23T03:41:35.038Z,1015.73
2019-05-23T03:42:34.985Z,1015.71
2019-05-23T03:43:35.071Z,1015.68
2019-05-23T03:44:34.921Z,1015.68
2019-05-23T03:45:39.236Z,1015.70
2019-05-23T03:46:34.982Z,1015.67
2019-05-23T03:47:34.839Z,1015.68
2019-05-23T03:48:34.882Z,1015.67
2019-05-23T03:49:34.779Z,1015.68
2019-05-23T03:50:34.895Z,1015.66
2019-05-23T03:51:34.796Z,1015.68
2019-05-23T03:52:34.695Z,1015.70
2019-05-23T03:53:34.697Z,1015.71
2019-05-23T03:54:34.648Z,1015.71
2019-05-23T03:55:34.722Z,1015.68
2019-05-23T03:56:34.600Z,1015.67
2019-05-23T03:57:34.589Z,1015.68
2019-05-23T03:58:34.629Z,1015.67
2019-05-23T03:59:34.515Z,1015.63
2019-05-23T04:00:34.542Z,1015.66
2019-05-23T04:01:46.925Z,1015.65
2019-05-23T04:02:34.431Z,1015.64
2019-05-23T04:03:34.468Z,1015.63
2019-05-23T04:04:34.377Z,1015.66
2019-05-23T04:05:34.369Z,1015.66
2019-05-23T04:06:34.321Z,1015.64
2019-05-23T04:07:34.301Z,1015.63
2019-05-23T04:08:34.273Z,1015.65
2019-05-23T04:09:34.309Z,1015.67
2019-05-23T04:10:34.214Z,1015.69
2019-05-23T04:11:34.310Z,1015.70
2019-05-23T04:12:34.159Z,1015.68
2019-05-23T04:13:34.132Z,1015.72
2019-05-23T04:14:34.107Z,1015.68
2019-05-23T04:15:34.134Z,1015.67
2019-05-23T04:16:34.063Z,1015.69
2019-05-23T04:17:34.150Z,1015.68
2019-05-23T04:18:34.041Z,1015.64
2019-05-23T04:19:33.966Z,1015.64
2019-05-23T04:20:34.059Z,1015.67
2019-05-23T04:21:33.924Z,1015.61
2019-05-23T04:22:33.957Z,1015.63
2019-05-23T04:23:33.874Z,1015.67
2019-05-23T04:24:33.840Z,1015.69
2019-05-23T04:25:33.879Z,1015.67
2019-05-23T04:26:33.786Z,1015.67
2019-05-23T04:27:33.788Z,1015.66
2019-05-23T04:28:33.731Z,1015.66
2019-05-23T04:29:33.698Z,1015.66
2019-05-23T04:30:33.677Z,1015.64
2019-05-23T04:31:33.720Z,1015.67
2019-05-23T04:32:33.619Z,1015.63
2019-05-23T04:33:33.619Z,1015.64
2019-05-23T04:34:33.581Z,1015.63
2019-05-23T04:35:33.636Z,1015.61
2019-05-23T04:36:33.507Z,1015.61
2019-05-23T04:37:33.547Z,1015.60
2019-05-23T04:38:36.115Z,1015.58
2019-05-23T04:39:33.462Z,1015.62
2019-05-23T04:40:33.407Z,1015.59
2019-05-23T04:41:33.473Z,1015.57
2019-05-23T04:42:33.362Z,1015.63
2019-05-23T04:43:33.402Z,1015.60
2019-05-23T04:44:33.315Z,1015.64
2019-05-23T04:45:33.276Z,1015.62
2019-05-23T04:46:33.295Z,1015.63
2019-05-23T04:47:33.297Z,1015.59
2019-05-23T04:48:33.201Z,1015.63
2019-05-23T04:49:33.209Z,1015.63
2019-05-23T04:50:33.141Z,1015.63
2019-05-23T04:51:33.108Z,1015.62
2019-05-23T04:52:33.137Z,1015.59
2019-05-23T04:53:33.049Z,1015.58
2019-05-23T04:54:33.061Z,1015.61
2019-05-23T04:55:33.003Z,1015.56
2019-05-23T04:56:32.979Z,1015.55
2019-05-23T04:57:32.948Z,1015.56
2019-05-23T04:58:32.971Z,1015.56
2019-05-23T04:59:32.890Z,1015.59
2019-05-23T05:00:32.983Z,1015.62
2019-05-23T05:01:32.843Z,1015.65
2019-05-23T05:02:32.888Z,1015.63
2019-05-23T05:03:32.788Z,1015.61
2019-05-23T05:04:34.876Z,1015.65
2019-05-23T05:05:32.729Z,1015.62
2019-05-23T05:06:32.840Z,1015.63
2019-05-23T05:07:32.742Z,1015.64
2019-05-23T05:08:32.657Z,1015.67
2019-05-23T05:09:32.757Z,1015.67
2019-05-23T05:10:32.608Z,1015.66
2019-05-23T05:11:32.656Z,1015.66
2019-05-23T05:12:32.673Z,1015.65
2019-05-23T05:13:32.518Z,1015.64
2019-05-23T05:14:32.578Z,1015.67
2019-05-23T05:15:32.466Z,1015.70
2019-05-23T05:16:32.488Z,1015.69
2019-05-23T05:17:32.424Z,1015.70
2019-05-23T05:18:32.395Z,1015.70
2019-05-23T05:19:32.406Z,1015.75
2019-05-23T05:20:32.339Z,1015.70
2019-05-23T05:21:32.430Z,1015.77
2019-05-23T05:22:32.290Z,1015.75
2019-05-23T05:23:32.256Z,1015.74
2019-05-23T05:24:32.231Z,1015.74
2019-05-23T05:25:32.350Z,1015.71
2019-05-23T05:26:32.179Z,1015.71
2019-05-23T05:27:32.259Z,1015.71
2019-05-23T05:28:32.128Z,1015.74
2019-05-23T05:29:32.179Z,1015.72
2019-05-23T05:30:32.069Z,1015.76
2019-05-23T05:31:32.195Z,1015.76
2019-05-23T05:32:44.011Z,1015.78
2019-05-23T05:33:31.999Z,1015.74
2019-05-23T05:34:31.960Z,1015.78
2019-05-23T05:35:32.012Z,1015.80
2019-05-23T05:36:31.917Z,1015.81
2019-05-23T05:37:32.025Z,1015.77
2019-05-23T05:38:31.912Z,1015.81
2019-05-23T05:39:31.842Z,1015.81
2019-05-23T05:40:31.811Z,1015.80
2019-05-23T05:41:31.847Z,1015.82
2019-05-23T05:42:31.757Z,1015.84
2019-05-23T05:43:31.878Z,1015.85
2019-05-23T05:44:31.719Z,1015.88
2019-05-23T05:45:31.687Z,1015.90
2019-05-23T05:46:31.789Z,1015.88
2019-05-23T05:47:31.632Z,1015.87
2019-05-23T05:48:31.697Z,1015.91
2019-05-23T05:49:31.569Z,1015.91
2019-05-23T05:50:31.558Z,1015.91
2019-05-23T05:51:31.518Z,1015.92
2019-05-23T05:52:31.619Z,1015.88
2019-05-23T05:53:31.471Z,1015.89
2019-05-23T05:54:31.529Z,1015.89
2019-05-23T05:55:31.420Z,1015.94
2019-05-23T05:56:31.547Z,1015.86
2019-05-23T05:57:31.370Z,1015.90
2019-05-23T05:58:31.478Z,1015.92
2019-05-23T05:59:31.338Z,1015.92
2019-05-23T06:00:31.471Z,1015.96
2019-05-23T06:01:34.332Z,1015.93
2019-05-23T06:02:31.267Z,1015.92
2019-05-23T06:03:31.387Z,1015.95
2019-05-23T06:04:31.199Z,1015.95
2019-05-23T06:05:31.309Z,1015.95
2019-05-23T06:06:31.312Z,1015.92
2019-05-23T06:07:31.109Z,1015.93
2019-05-23T06:08:31.221Z,1015.96
2019-05-23T06:09:31.073Z,1015.96
2019-05-23T06:10:31.150Z,1015.99
2019-05-23T06:11:31.008Z,1015.98
2019-05-23T06:12:30.987Z,1016.00
2019-05-23T06:13:31.173Z,1016.03
2019-05-23T06:14:30.938Z,1016.07
2019-05-23T06:15:31.079Z,1016.04
2019-05-23T06:16:30.951Z,1016.03
2019-05-23T06:17:30.881Z,1016.01
2019-05-23T06:18:30.828Z,1016.01
2019-05-23T06:19:30.988Z,1016.02
2019-05-23T06:20:30.786Z,1016.01
2019-05-23T06:21:30.908Z,1016.03
2019-05-23T06:22:30.738Z,1016.04
2019-05-23T06:23:30.831Z,1016.06
2019-05-23T06:24:44.882Z,1016.05
2019-05-23T06:25:30.835Z,1016.09
2019-05-23T06:26:30.649Z,1016.07
2019-05-23T06:27:30.747Z,1016.06
2019-05-23T06:28:30.590Z,1016.10
2019-05-23T06:29:30.761Z,1016.09
2019-05-23T06:30:32.720Z,1016.06
2019-05-23T06:31:30.668Z,1016.09
2019-05-23T06:32:30.477Z,1016.04
2019-05-23T06:33:30.471Z,1016.02
2019-05-23T06:34:30.438Z,1016.03
2019-05-23T06:35:30.602Z,1016.04
2019-05-23T06:36:30.393Z,1016.05
2019-05-23T06:37:34.202Z,1016.06
2019-05-23T06:38:30.389Z,1016.07
2019-05-23T06:39:30.306Z,1016.12
2019-05-23T06:40:30.431Z,1016.09
2019-05-23T06:41:30.261Z,1016.08
2019-05-23T06:42:30.440Z,1016.10
2019-05-23T06:43:30.208Z,1016.08
2019-05-23T06:44:30.185Z,1016.08
2019-05-23T06:45:30.370Z,1016.07
2019-05-23T06:46:30.154Z,1016.07
2019-05-23T06:47:30.267Z,1016.04
2019-05-23T06:48:30.099Z,1016.05
2019-05-23T06:49:30.069Z,1016.05
2019-05-23T06:50:30.038Z,1016.02
2019-05-23T06:51:30.098Z,1015.99
2019-05-23T06:52:29.988Z,1016.01
2019-05-23T06:53:30.007Z,1016.00
2019-05-23T06:54:29.948Z,1016.02
2019-05-23T06:55:29.929Z,1015.97
2019-05-23T06:56:29.928Z,1015.98
2019-05-23T06:57:29.878Z,1016.01
2019-05-23T06:58:29.940Z,1016.01
2019-05-23T06:59:29.827Z,1015.97
2019-05-23T07:00:29.833Z,1015.98
2019-05-23T07:01:29.780Z,1015.98
2019-05-23T07:02:32.032Z,1016.02
2019-05-23T07:03:41.583Z,1016.01
2019-05-23T07:04:29.698Z,1016.03
2019-05-23T07:05:29.795Z,1016.04
2019-05-23T07:06:29.668Z,1016.04
2019-05-23T07:07:29.701Z,1016.04
2019-05-23T07:08:29.618Z,1016.05
2019-05-23T07:09:29.717Z,1016.02
2019-05-23T07:10:29.566Z,1016.03
2019-05-23T07:11:29.716Z,1016.03
2019-05-23T07:12:29.516Z,1016.04
2019-05-23T07:13:29.537Z,1016.00
2019-05-23T07:14:29.482Z,1016.04
2019-05-23T07:15:29.559Z,1015.99
2019-05-23T07:16:29.418Z,1016.01
2019-05-23T07:17:29.469Z,1015.98
2019-05-23T07:18:29.367Z,1016.01
2019-05-23T07:19:29.476Z,1015.99
2019-05-23T07:20:29.330Z,1016.02
2019-05-23T07:21:29.399Z,1016.01
2019-05-23T07:22:29.292Z,1015.98
2019-05-23T07:23:29.308Z,1016.04
2019-05-23T07:24:29.229Z,1016.03
2019-05-23T07:25:29.315Z,1016.07
2019-05-23T07:26:29.177Z,1016.04
2019-05-23T07:27:29.171Z,1016.07
2019-05-23T07:28:29.187Z,1016.06
2019-05-23T07:29:29.215Z,1016.08
2019-05-23T07:30:29.087Z,1016.09
2019-05-23T07:31:31.297Z,1016.09
2019-05-23T07:32:29.053Z,1016.12
2019-05-23T07:33:29.225Z,1016.11
2019-05-23T07:34:28.987Z,1016.11
2019-05-23T07:35:29.080Z,1016.09
2019-05-23T07:36:28.950Z,1016.10
2019-05-23T07:37:28.988Z,1016.15
2019-05-23T07:38:28.996Z,1016.10
2019-05-23T07:39:28.881Z,1016.15
2019-05-23T07:40:29.102Z,1016.14
2019-05-23T07:41:28.848Z,1016.11
2019-05-23T07:42:28.929Z,1016.12
2019-05-23T07:43:28.789Z,1016.03
2019-05-23T07:44:28.837Z,1016.07
2019-05-23T07:45:28.748Z,1016.07
2019-05-23T07:46:28.846Z,1016.04
2019-05-23T07:47:28.708Z,1016.07
2019-05-23T07:48:28.773Z,1016.07
2019-05-23T07:49:28.649Z,1016.05
2019-05-23T07:50:28.776Z,1016.07
2019-05-23T07:51:29.800Z,1016.04
2019-05-23T07:52:28.701Z,1016.06
2019-05-23T07:53:28.560Z,1016.09
2019-05-23T07:54:28.546Z,1016.06
2019-05-23T07:55:28.608Z,1016.07
2019-05-23T07:56:28.495Z,1016.10
2019-05-23T07:57:28.621Z,1016.10
2019-05-23T07:58:28.458Z,1016.10
2019-05-23T07:59:28.436Z,1016.10
2019-05-23T08:00:28.407Z,1016.10
2019-05-23T08:01:28.547Z,1016.09
2019-05-23T08:02:28.348Z,1016.06
2019-05-23T08:03:28.456Z,1016.08
2019-05-23T08:04:28.306Z,1016.03
2019-05-23T08:05:28.286Z,1016.04
2019-05-23T08:06:28.376Z,1016.04
2019-05-23T08:07:32.497Z,1016.04
2019-05-23T08:08:28.396Z,1015.99
2019-05-23T08:09:28.196Z,1016.02
2019-05-23T08:10:33.900Z,1016.02
2019-05-23T08:11:28.146Z,1015.99
2019-05-23T08:12:28.217Z,1016.02
2019-05-23T08:13:28.098Z,1016.03
2019-05-23T08:14:28.230Z,1016.05
2019-05-23T08:15:28.067Z,1016.02
2019-05-23T08:16:28.050Z,1016.01
2019-05-23T08:17:28.186Z,1016.01
2019-05-23T08:18:28.003Z,1016.03
2019-05-23T08:19:28.172Z,1016.02
2019-05-23T08:20:27.946Z,1016.06
2019-05-23T08:21:27.928Z,1016.01
2019-05-23T08:22:27.905Z,1015.99
2019-05-23T08:23:27.994Z,1016.00
2019-05-23T08:24:27.870Z,1016.03
2019-05-23T08:25:28.036Z,1016.03
2019-05-23T08:26:27.835Z,1015.99
2019-05-23T08:27:27.920Z,1016.03
2019-05-23T08:28:27.789Z,1016.04
2019-05-23T08:29:28.013Z,1016.00
2019-05-23T08:30:27.733Z,1015.99
2019-05-23T08:31:27.747Z,1015.96
2019-05-23T08:32:27.688Z,1015.93
2019-05-23T08:33:27.765Z,1016.00
2019-05-23T08:34:40.542Z,1015.98
2019-05-23T08:35:27.670Z,1015.98
2019-05-23T08:36:27.601Z,1015.98
2019-05-23T08:37:27.635Z,1015.96
2019-05-23T08:38:27.547Z,1015.94
2019-05-23T08:39:27.587Z,1015.95
2019-05-23T08:40:27.509Z,1015.95
2019-05-23T08:41:27.511Z,1015.96
2019-05-23T08:42:27.467Z,1015.96
2019-05-23T08:43:27.446Z,1015.93
2019-05-23T08:44:27.536Z,1015.95
2019-05-23T08:45:27.402Z,1015.94
2019-05-23T08:46:27.437Z,1015.96
2019-05-23T08:47:27.357Z,1015.93
2019-05-23T08:48:27.346Z,1015.96
2019-05-23T08:49:27.359Z,1015.97
2019-05-23T08:50:27.287Z,1015.99
2019-05-23T08:51:27.356Z,1015.99
2019-05-23T08:52:27.247Z,1015.98
2019-05-23T08:53:27.228Z,1015.99
2019-05-23T08:54:27.208Z,1016.01
2019-05-23T08:55:27.370Z,1016.02
2019-05-23T08:56:27.157Z,1016.01
2019-05-23T08:57:27.202Z,1016.04
2019-05-23T08:58:27.117Z,1016.01
2019-05-23T08:59:27.118Z,1015.98
2019-05-23T09:00:27.078Z,1015.98
2019-05-23T09:01:27.119Z,1015.96
2019-05-23T09:02:27.039Z,1015.97
2019-05-23T09:03:27.048Z,1015.89
2019-05-23T09:04:27.049Z,1015.86
2019-05-23T09:05:26.976Z,1015.85
2019-05-23T09:06:27.066Z,1015.86
2019-05-23T09:07:26.938Z,1015.85
2019-05-23T09:08:26.979Z,1015.87
2019-05-23T09:09:30.021Z,1015.92
2019-05-23T09:10:26.866Z,1015.87
2019-05-23T09:11:26.910Z,1015.88
2019-05-23T09:12:26.854Z,1015.87
2019-05-23T09:13:26.910Z,1015.87
2019-05-23T09:14:26.788Z,1015.91
2019-05-23T09:15:26.767Z,1015.86
2019-05-23T09:16:26.826Z,1015.86
2019-05-23T09:17:26.732Z,1015.84
2019-05-23T09:18:26.847Z,1015.86
2019-05-23T09:19:26.687Z,1015.84
2019-05-23T09:20:26.669Z,1015.86
2019-05-23T09:21:26.647Z,1015.89
2019-05-23T09:22:26.768Z,1015.78
2019-05-23T09:23:26.662Z,1015.84
2019-05-23T09:24:26.686Z,1015.80
2019-05-23T09:25:26.564Z,1015.81
2019-05-23T09:26:26.551Z,1015.85
2019-05-23T09:27:26.616Z,1015.83
2019-05-23T09:28:26.519Z,1015.81
2019-05-23T09:29:26.619Z,1015.79
2019-05-23T09:30:26.465Z,1015.77
2019-05-23T09:31:26.446Z,1015.78
2019-05-23T09:32:26.429Z,1015.82
2019-05-23T09:33:26.536Z,1015.81
2019-05-23T09:34:26.398Z,1015.81
2019-05-23T09:35:26.460Z,1015.74
2019-05-23T09:36:26.349Z,1015.81
2019-05-23T09:37:26.485Z,1015.79
2019-05-23T09:38:26.309Z,1015.86
2019-05-23T09:39:26.377Z,1015.82
2019-05-23T09:40:26.279Z,1015.82
2019-05-23T09:41:26.431Z,1015.81
2019-05-23T09:42:26.240Z,1015.80
2019-05-23T09:43:26.309Z,1015.76
2019-05-23T09:44:26.187Z,1015.76
2019-05-23T09:45:26.331Z,1015.82
2019-05-23T09:46:26.149Z,1015.75
2019-05-23T09:47:26.277Z,1015.71
2019-05-23T09:48:26.120Z,1015.71
2019-05-23T09:49:26.246Z,1015.75
2019-05-23T09:50:26.085Z,1015.73
2019-05-23T09:51:26.158Z,1015.73
2019-05-23T09:52:26.037Z,1015.69
2019-05-23T09:53:26.116Z,1015.67
2019-05-23T09:54:26.078Z,1015.68
2019-05-23T09:55:25.978Z,1015.73
2019-05-23T09:56:26.087Z,1015.75
2019-05-23T09:57:25.950Z,1015.70
2019-05-23T09:58:25.929Z,1015.72
2019-05-23T09:59:26.037Z,1015.75
2019-05-23T10:00:25.886Z,1015.69
2019-05-23T10:01:26.215Z,1015.71
2019-05-23T10:02:25.849Z,1015.64
2019-05-23T10:03:25.827Z,1015.66
2019-05-23T10:04:25.827Z,1015.63
2019-05-23T10:05:41.998Z,1015.67
2019-05-23T10:06:25.814Z,1015.67
2019-05-23T10:07:25.870Z,1015.71
2019-05-23T10:08:25.749Z,1015.67
2019-05-23T10:09:25.722Z,1015.65
2019-05-23T10:10:25.901Z,1015.66
2019-05-23T10:11:25.703Z,1015.63
2019-05-23T10:12:25.727Z,1015.63
2019-05-23T10:13:38.434Z,1015.57
2019-05-23T10:14:25.680Z,1015.54
2019-05-23T10:15:25.629Z,1015.55
2019-05-23T10:16:25.635Z,1015.58
2019-05-23T10:17:25.603Z,1015.55
2019-05-23T10:18:26.021Z,1015.54
2019-05-23T10:19:25.530Z,1015.50
2019-05-23T10:20:25.653Z,1015.50
2019-05-23T10:21:25.510Z,1015.47
2019-05-23T10:22:25.568Z,1015.48
2019-05-23T10:23:25.476Z,1015.45
2019-05-23T10:24:25.482Z,1015.52
2019-05-23T10:25:25.437Z,1015.52
2019-05-23T10:26:25.488Z,1015.54
2019-05-23T10:27:25.411Z,1015.55
2019-05-23T10:28:25.407Z,1015.51
2019-05-23T10:29:25.372Z,1015.50
2019-05-23T10:30:25.364Z,1015.46
2019-05-23T10:31:25.417Z,1015.41
2019-05-23T10:32:25.324Z,1015.44
2019-05-23T10:33:25.348Z,1015.43
2019-05-23T10:34:25.280Z,1015.50
2019-05-23T10:35:25.351Z,1015.39
2019-05-23T10:36:25.223Z,1015.40
2019-05-23T10:37:25.258Z,1015.38
2019-05-23T10:38:28.973Z,1015.40
2019-05-23T10:39:25.289Z,1015.32
2019-05-23T10:40:25.175Z,1015.33
2019-05-23T10:41:25.157Z,1015.28
2019-05-23T10:42:25.192Z,1015.28
2019-05-23T10:43:25.130Z,1015.28
2019-05-23T10:44:25.213Z,1015.26
2019-05-23T10:45:25.092Z,1015.27
2019-05-23T10:46:25.067Z,1015.33
2019-05-23T10:47:25.057Z,1015.27
2019-05-23T10:48:25.139Z,1015.21
2019-05-23T10:49:25.012Z,1015.24
2019-05-23T10:50:25.067Z,1015.21
2019-05-23T10:51:24.991Z,1015.24
2019-05-23T10:52:25.056Z,1015.26
2019-05-23T10:53:24.948Z,1015.16
2019-05-23T10:54:25.006Z,1015.17
2019-05-23T10:55:24.906Z,1015.13
2019-05-23T10:56:24.997Z,1015.08
2019-05-23T10:57:24.877Z,1015.03
2019-05-23T10:58:25.000Z,1015.06
2019-05-23T10:59:24.836Z,1015.08
2019-05-23T11:00:25.930Z,1015.10
2019-05-23T11:01:24.807Z,1014.99
2019-05-23T11:02:26.975Z,1015.08
2019-05-23T11:03:24.777Z,1015.11
2019-05-23T11:04:24.836Z,1015.05
2019-05-23T11:05:24.761Z,1015.10
2019-05-23T11:06:24.748Z,1015.03
2019-05-23T11:07:24.706Z,1015.09
2019-05-23T11:08:29.462Z,1015.03
2019-05-23T11:09:37.488Z,1015.00
2019-05-23T11:10:24.656Z,1015.01
2019-05-23T11:11:24.786Z,1015.04
2019-05-23T11:12:24.663Z,1015.08
2019-05-23T11:13:24.681Z,1015.08
2019-05-23T11:14:24.589Z,1015.06
2019-05-23T11:15:24.655Z,1015.02
2019-05-23T11:16:24.562Z,1015.00
2019-05-23T11:17:24.617Z,1014.91
2019-05-23T11:18:24.559Z,1015.01
2019-05-23T11:19:24.540Z,1015.00
2019-05-23T11:20:24.489Z,1015.01
2019-05-23T11:21:24.555Z,1014.95
2019-05-23T11:22:24.457Z,1014.94
2019-05-23T11:23:24.458Z,1014.94
2019-05-23T11:24:24.421Z,1014.94
2019-05-23T11:25:24.479Z,1014.95
2019-05-23T11:26:24.386Z,1014.96
2019-05-23T11:27:24.529Z,1014.98
2019-05-23T11:28:24.357Z,1014.95
2019-05-23T11:29:27.220Z,1014.91
2019-05-23T11:30:24.413Z,1014.91
2019-05-23T11:31:24.319Z,1014.87
2019-05-23T11:32:24.319Z,1014.94
2019-05-23T11:33:24.271Z,1014.87
2019-05-23T11:34:24.248Z,1014.83
2019-05-23T11:35:24.262Z,1014.83
2019-05-23T11:36:34.936Z,1014.84
2019-05-23T11:37:24.212Z,1014.86
2019-05-23T11:38:24.259Z,1014.85
2019-05-23T11:39:24.181Z,1014.82
2019-05-23T11:40:24.163Z,1014.80
2019-05-23T11:41:24.144Z,1014.87
2019-05-23T11:42:24.188Z,1014.93
2019-05-23T11:43:24.118Z,1014.89
2019-05-23T11:44:24.098Z,1014.90
2019-05-23T11:45:24.078Z,1014.89
2019-05-23T11:46:24.118Z,1014.84
2019-05-23T11:47:24.041Z,1014.80
2019-05-23T11:48:24.126Z,1014.87
2019-05-23T11:49:24.010Z,1014.91
2019-05-23T11:50:24.038Z,1014.85
2019-05-23T11:51:25.455Z,1014.87
2019-05-23T11:52:24.057Z,1014.86
2019-05-23T11:53:23.950Z,1014.87
2019-05-23T11:54:23.966Z,1014.84
2019-05-23T11:55:23.911Z,1014.78
2019-05-23T11:56:23.903Z,1014.78
2019-05-23T11:57:23.988Z,1014.80
2019-05-23T11:58:23.869Z,1014.79
2019-05-23T11:59:23.899Z,1014.77
2019-05-23T12:00:23.840Z,1014.74
2019-05-23T12:01:23.810Z,1014.79
2019-05-23T12:02:23.796Z,1014.77
2019-05-23T12:03:23.842Z,1014.90
2019-05-23T12:04:23.758Z,1014.69
2019-05-23T12:05:24.808Z,1014.67
2019-05-23T12:06:26.129Z,1014.72
2019-05-23T12:07:23.733Z,1014.71
2019-05-23T12:08:23.861Z,1014.74
2019-05-23T12:09:23.693Z,1014.75
2019-05-23T12:10:23.788Z,1014.75
2019-05-23T12:11:23.646Z,1014.72
2019-05-23T12:12:23.627Z,1014.76
2019-05-23T12:13:23.608Z,1014.78
2019-05-23T12:14:23.698Z,1014.81
2019-05-23T12:15:23.596Z,1014.74
2019-05-23T12:16:23.630Z,1014.75
2019-05-23T12:17:23.545Z,1014.78
2019-05-23T12:18:23.636Z,1014.64
2019-05-23T12:19:23.536Z,1014.66
2019-05-23T12:20:23.537Z,1014.62
2019-05-23T12:21:23.491Z,1014.73
2019-05-23T12:22:23.565Z,1014.76
2019-05-23T12:23:23.448Z,1014.74
2019-05-23T12:24:23.483Z,1014.70
2019-05-23T12:25:23.707Z,1014.70
2019-05-23T12:26:23.478Z,1014.69
2019-05-23T12:27:23.383Z,1014.72